Time;durP1;ratioP1;P1;durP2;ratioP2;P2;SDS_P1;SDS_P2;PMS_P1;PMS_P2;Temp;Humidity;BMP_temperature;BMP_pressure;BME280_temperature;BME280_humidity;BME280_pressure;Samples;Min_cycle;Max_cycle;Signal;HPM_P1;HPM_P2
2022/07/30 00:01:25;;;;;;;1999.90;999.90;;;;;;;18.94;87.64;99661.69;5067908;28;20044;-52
2022/07/30 00:04:10;;;;;;;1999.90;999.90;;;;;;;19.00;87.71;99661.31;5070647;28;20040;-53
2022/07/30 00:06:54;;;;;;;1999.90;999.90;;;;;;;18.95;88.09;99650.13;5065493;28;20495;-52
2022/07/30 00:09:39;;;;;;;1999.90;999.90;;;;;;;18.97;88.30;99645.56;5071199;28;20418;-52
2022/07/30 00:12:23;;;;;;;1999.90;999.90;;;;;;;18.92;88.96;99645.03;5070623;28;20563;-53
2022/07/30 00:15:08;;;;;;;1999.90;999.90;;;;;;;18.88;89.22;99638.19;5070276;28;20048;-53
2022/07/30 00:17:53;;;;;;;1999.90;999.90;;;;;;;18.85;88.49;99615.38;5055905;28;20097;-53
2022/07/30 00:20:39;;;;;;;1999.90;999.90;;;;;;;18.85;89.78;99636.59;5055169;28;20360;-51
2022/07/30 00:23:23;;;;;;;1999.90;999.90;;;;;;;18.73;91.16;99634.69;5060933;28;20054;-53
2022/07/30 00:26:08;;;;;;;1999.90;999.90;;;;;;;18.69;91.29;99628.69;5067308;28;20049;-52
2022/07/30 00:28:52;;;;;;;1999.90;999.90;;;;;;;18.76;90.54;99633.66;5074038;28;20048;-53
2022/07/30 00:31:37;;;;;;;1999.90;999.90;;;;;;;18.74;90.88;99624.91;5065776;28;20109;-51
2022/07/30 00:34:22;;;;;;;1999.90;999.90;;;;;;;18.75;90.37;99632.81;5069404;28;20068;-51
2022/07/30 00:37:06;;;;;;;1999.90;999.90;;;;;;;18.58;91.75;99620.50;5056998;28;20048;-52
2022/07/30 00:39:51;;;;;;;1999.90;999.90;;;;;;;18.64;92.09;99614.84;5063959;28;20052;-51
2022/07/30 00:42:40;;;;;;;1999.90;999.90;;;;;;;18.75;91.24;99608.94;5054497;28;20041;-53
2022/07/30 00:45:26;;;;;;;1999.90;999.90;;;;;;;18.59;92.65;99606.34;5061797;28;20682;-52
2022/07/30 00:48:14;;;;;;;1999.90;999.90;;;;;;;18.66;91.75;99609.47;5067214;28;20060;-52
2022/07/30 00:50:59;;;;;;;1999.90;999.90;;;;;;;18.67;92.68;99603.19;5072462;28;20044;-53
2022/07/30 00:53:44;;;;;;;1999.90;999.90;;;;;;;18.66;92.05;99593.53;5070022;28;20048;-53
2022/07/30 00:56:28;;;;;;;1999.90;999.90;;;;;;;18.58;93.10;99574.59;5070302;28;20044;-53
2022/07/30 00:59:13;;;;;;;1999.90;999.90;;;;;;;18.67;92.34;99579.31;5071901;28;20476;-52
2022/07/30 01:02:00;;;;;;;1999.90;999.90;;;;;;;18.54;93.10;99570.44;5069694;28;20149;-54
2022/07/30 01:04:44;;;;;;;1999.90;999.90;;;;;;;18.49;93.92;99557.47;5063627;28;20052;-52
2022/07/30 01:07:28;;;;;;;1999.90;999.90;;;;;;;18.55;93.86;99554.41;5069824;28;20071;-51
2022/07/30 01:10:14;;;;;;;1999.90;999.90;;;;;;;18.50;93.27;99553.00;5069587;28;20578;-51
2022/07/30 01:13:00;;;;;;;1999.90;999.90;;;;;;;18.45;94.50;99559.41;5056619;28;20420;-52
2022/07/30 01:15:45;;;;;;;1999.90;999.90;;;;;;;18.56;93.23;99571.19;5052765;28;20044;-52
2022/07/30 01:21:38;;;;;;;1999.90;999.90;;;;;;;18.47;93.86;99579.72;5053479;28;20397;-52
2022/07/30 01:25:08;;;;;;;1999.90;999.90;;;;;;;18.54;93.87;99573.06;5066466;28;20041;-53
2022/07/30 01:27:58;;;;;;;1999.90;999.90;;;;;;;18.53;93.81;99569.56;5067732;28;20085;-53
2022/07/30 01:30:44;;;;;;;1999.90;999.90;;;;;;;18.58;93.41;99571.94;5061596;28;20037;-52
2022/07/30 01:33:30;;;;;;;1999.90;999.90;;;;;;;18.51;94.01;99570.63;5055774;28;20109;-53
2022/07/30 01:36:21;;;;;;;1999.90;999.90;;;;;;;18.53;94.26;99577.53;5056068;28;20442;-53
2022/07/30 01:39:06;;;;;;;1999.90;999.90;;;;;;;18.46;93.84;99565.59;5057498;28;20385;-53
2022/07/30 01:41:53;;;;;;;1999.90;999.90;;;;;;;18.50;94.92;99567.13;5054050;28;20049;-53
2022/07/30 01:44:39;;;;;;;1999.90;999.90;;;;;;;18.43;94.85;99563.13;5057219;28;20063;-52
2022/07/30 01:47:24;;;;;;;1999.90;999.90;;;;;;;18.37;96.04;99569.66;5052260;28;20033;-52
2022/07/30 01:50:14;;;;;;;1999.90;999.90;;;;;;;18.47;95.02;99555.84;5054357;28;20518;-52
2022/07/30 01:52:59;;;;;;;1999.90;999.90;;;;;;;18.37;95.02;99547.59;5058093;28;20036;-50
2022/07/30 01:55:45;;;;;;;1999.90;999.90;;;;;;;18.35;95.18;99560.94;5067082;28;20076;-52
2022/07/30 01:58:37;;;;;;;1999.90;999.90;;;;;;;18.49;95.11;99569.84;5062585;28;20072;-53
2022/07/30 02:01:31;;;;;;;1999.90;999.90;;;;;;;18.37;95.14;99567.00;5055774;28;20048;-52
2022/07/30 02:04:18;;;;;;;1999.90;999.90;;;;;;;18.49;94.87;99576.03;5056731;28;20452;-53
2022/07/30 02:07:21;;;;;;;1999.90;999.90;;;;;;;18.48;95.77;99582.25;5062591;28;20377;-52
2022/07/30 02:10:13;;;;;;;1999.90;999.90;;;;;;;18.53;95.29;99569.56;5064614;28;20398;-53
2022/07/30 02:13:05;;;;;;;1999.90;999.90;;;;;;;18.40;96.06;99571.28;5060303;28;20044;-52
2022/07/30 02:16:06;;;;;;;1999.90;999.90;;;;;;;18.43;95.94;99569.28;5067359;28;20464;-50
2022/07/30 02:19:13;;;;;;;1999.90;999.90;;;;;;;18.35;96.55;99568.88;5053097;28;20045;-53
2022/07/30 02:22:09;;;;;;;1999.90;999.90;;;;;;;18.46;95.22;99557.66;5068207;28;20040;-52
2022/07/30 02:24:55;;;;;;;1999.90;999.90;;;;;;;18.26;97.11;99552.69;5063883;28;20410;-53
2022/07/30 02:27:42;;;;;;;1999.90;999.90;;;;;;;18.28;96.20;99548.16;5054609;28;20063;-51
2022/07/30 02:30:30;;;;;;;1999.90;999.90;;;;;;;18.21;96.89;99548.53;5060216;28;20056;-53
2022/07/30 02:33:18;;;;;;;1999.90;999.90;;;;;;;18.15;98.18;99548.06;5063235;28;20140;-52
2022/07/30 02:36:05;;;;;;;1999.90;999.90;;;;;;;18.19;97.06;99542.47;5061089;28;20044;-52
2022/07/30 02:38:51;;;;;;;1999.90;999.90;;;;;;;18.10;97.45;99545.69;5054988;28;20045;-52
2022/07/30 02:41:39;;;;;;;1999.90;999.90;;;;;;;17.96;98.61;99540.34;5054843;28;20044;-52
2022/07/30 02:44:28;;;;;;;1999.90;999.90;;;;;;;17.96;98.77;99540.34;5059079;28;20072;-53
2022/07/30 02:47:15;;;;;;;1999.90;999.90;;;;;;;18.02;99.24;99539.97;5056584;28;20391;-54
2022/07/30 02:50:01;;;;;;;1999.90;999.90;;;;;;;18.06;98.46;99528.25;5053426;28;20052;-52
2022/07/30 02:52:48;;;;;;;1999.90;999.90;;;;;;;18.00;99.24;99520.66;5065007;28;20056;-53
2022/07/30 02:55:34;;;;;;;1999.90;999.90;;;;;;;17.87;99.63;99525.00;5065144;28;20123;-53
2022/07/30 02:58:22;;;;;;;1999.90;999.90;;;;;;;17.92;99.32;99522.94;5060078;28;20075;-52
2022/07/30 03:01:07;;;;;;;1999.90;999.90;;;;;;;18.00;98.79;99533.91;5063713;28;20057;-52
2022/07/30 03:03:53;;;;;;;1999.90;999.90;;;;;;;17.94;99.12;99537.81;5060250;28;20041;-52
2022/07/30 03:06:40;;;;;;;1999.90;999.90;;;;;;;17.82;99.51;99525.28;5058904;28;20056;-52
2022/07/30 03:09:26;;;;;;;1999.90;999.90;;;;;;;17.94;99.22;99531.66;5067782;28;20048;-53
2022/07/30 03:12:13;;;;;;;1999.90;999.90;;;;;;;17.87;99.48;99543.53;5060283;28;20119;-53
2022/07/30 03:14:57;;;;;;;1999.90;999.90;;;;;;;17.94;99.19;99534.31;5062680;28;20052;-54
2022/07/30 03:17:45;;;;;;;1999.90;999.90;;;;;;;17.91;99.90;99532.69;5059195;28;20037;-53
2022/07/30 03:20:31;;;;;;;1999.90;999.90;;;;;;;17.96;99.64;99535.91;5056787;28;20044;-51
2022/07/30 03:23:18;;;;;;;1999.90;999.90;;;;;;;17.93;99.73;99544.03;5058216;28;20108;-54
2022/07/30 03:26:05;;;;;;;1999.90;999.90;;;;;;;17.71;100.00;99527.66;5060575;28;20048;-52
2022/07/30 03:28:50;;;;;;;1999.90;999.90;;;;;;;17.75;100.00;99537.16;5062072;28;20064;-53
2022/07/30 03:31:38;;;;;;;1999.90;999.90;;;;;;;17.79;100.00;99527.25;5063635;28;20057;-53
2022/07/30 03:34:25;;;;;;;1999.90;999.90;;;;;;;17.71;100.00;99527.66;5063744;28;20045;-53
2022/07/30 03:37:10;;;;;;;1999.90;999.90;;;;;;;17.65;100.00;99520.09;5053019;28;20475;-53
2022/07/30 03:39:57;;;;;;;1999.90;999.90;;;;;;;17.72;100.00;99532.88;5063604;28;20398;-53
2022/07/30 03:42:44;;;;;;;1999.90;999.90;;;;;;;17.61;100.00;99523.84;5058731;28;20048;-53
2022/07/30 03:45:29;;;;;;;1999.90;999.90;;;;;;;17.72;100.00;99530.22;5065332;28;20056;-52
2022/07/30 03:48:22;;;;;;;1999.90;999.90;;;;;;;17.65;100.00;99526.25;5065588;28;20089;-53
2022/07/30 03:51:10;;;;;;;1999.90;999.90;;;;;;;17.78;100.00;99525.53;5065684;28;20040;-53
2022/07/30 03:53:57;;;;;;;1999.90;999.90;;;;;;;17.84;100.00;99514.56;5063656;28;20051;-51
2022/07/30 03:56:50;;;;;;;1999.90;999.90;;;;;;;17.93;99.97;99521.97;5069002;28;20040;-52
2022/07/30 03:59:50;;;;;;;1999.90;999.90;;;;;;;17.90;100.00;99506.25;5066228;28;20815;-52
2022/07/30 04:02:43;;;;;;;1999.90;999.90;;;;;;;17.80;100.00;99515.72;5066542;28;20450;-53
2022/07/30 04:05:33;;;;;;;1999.90;999.90;;;;;;;17.80;100.00;99513.06;5066175;28;20057;-53
2022/07/30 04:08:19;;;;;;;1999.90;999.90;;;;;;;17.83;100.00;99512.88;5075251;28;20044;-52
2022/07/30 04:11:04;;;;;;;1999.90;999.90;;;;;;;17.90;100.00;99508.91;5067898;28;20040;-53
2022/07/30 04:14:06;;;;;;;1999.90;999.90;;;;;;;17.87;100.00;99503.81;5058490;28;20041;-52
2022/07/30 04:17:00;;;;;;;1999.90;999.90;;;;;;;17.87;100.00;99502.00;5061753;28;20044;-52
2022/07/30 04:19:50;;;;;;;1999.90;999.90;;;;;;;17.97;100.00;99504.94;5063081;28;21571;-53
2022/07/30 04:22:36;;;;;;;1999.90;999.90;;;;;;;17.92;100.00;99507.03;5057254;28;20045;-53
2022/07/30 04:25:22;;;;;;;1999.90;999.90;;;;;;;17.94;100.00;99508.66;5058333;28;20045;-53
2022/07/30 04:28:11;;;;;;;1999.90;999.90;;;;;;;17.91;100.00;99497.41;5063235;28;20041;-52
2022/07/30 04:30:56;;;;;;;1999.90;999.90;;;;;;;17.94;100.00;99506.00;5061376;28;20069;-53
2022/07/30 04:33:44;;;;;;;1999.90;999.90;;;;;;;18.15;99.66;99495.91;5062299;28;20048;-52
2022/07/30 04:36:42;;;;;;;1999.90;999.90;;;;;;;18.04;100.00;99497.50;5071484;28;20045;-53
2022/07/30 04:39:27;;;;;;;1999.90;999.90;;;;;;;18.13;100.00;99487.16;5057804;28;20495;-53
2022/07/30 04:42:12;;;;;;;1999.90;999.90;;;;;;;18.11;100.00;99491.72;5070072;28;20644;-52
2022/07/30 04:44:57;;;;;;;1999.90;999.90;;;;;;;18.07;100.00;99484.03;5056236;28;20044;-52
2022/07/30 04:47:45;;;;;;;1999.90;999.90;;;;;;;18.42;100.00;99492.47;5062829;28;20045;-51
2022/07/30 04:50:58;;;;;;;1999.90;999.90;;;;;;;18.46;100.00;99483.41;5037244;28;20049;-52
2022/07/30 04:53:44;;;;;;;1999.90;999.90;;;;;;;18.55;99.60;99500.53;5060020;28;20037;-53
2022/07/30 04:56:32;;;;;;;1999.90;999.90;;;;;;;18.73;98.39;99499.41;5077574;28;20052;-53
2022/07/30 04:59:18;;;;;;;1999.90;999.90;;;;;;;18.81;97.42;99496.25;5055724;28;20127;-54
2022/07/30 05:02:05;;;;;;;1999.90;999.90;;;;;;;18.64;98.23;99502.59;5063443;28;20052;-52
2022/07/30 05:04:51;;;;;;;1999.90;999.90;;;;;;;18.86;96.61;99500.31;5062552;28;20048;-53
2022/07/30 05:07:37;;;;;;;1999.90;999.90;;;;;;;18.90;95.63;99493.84;5066911;28;20376;-53
2022/07/30 05:10:22;;;;;;;1999.90;999.90;;;;;;;18.67;98.68;99490.00;5064674;28;20057;-51
2022/07/30 05:13:11;;;;;;;1999.90;999.90;;;;;;;18.72;97.46;99489.75;5059127;28;20052;-54
2022/07/30 05:15:55;;;;;;;1999.90;999.90;;;;;;;19.20;94.57;99502.59;5062123;28;20040;-53
2022/07/30 05:18:43;;;;;;;1999.90;999.90;;;;;;;19.12;95.86;99492.47;5060740;28;20040;-53
2022/07/30 05:21:27;;;;;;;1999.90;999.90;;;;;;;19.07;96.12;99502.53;5061359;28;20052;-52
2022/07/30 05:24:12;;;;;;;1999.90;999.90;;;;;;;19.03;95.28;99506.34;5067018;28;20052;-54
2022/07/30 05:26:59;;;;;;;1999.90;999.90;;;;;;;19.10;95.75;99505.84;5068569;28;20135;-52
2022/07/30 05:29:45;;;;;;;1999.90;999.90;;;;;;;18.82;96.79;99508.59;5061649;28;20036;-54
2022/07/30 05:32:35;;;;;;;1999.90;999.90;;;;;;;19.18;95.87;99513.31;5060389;28;20040;-53
2022/07/30 05:35:20;;;;;;;1999.90;999.90;;;;;;;19.19;96.75;99511.50;5057284;28;20048;-53
2022/07/30 05:38:05;;;;;;;1999.90;999.90;;;;;;;19.12;96.42;99508.41;5053842;28;20045;-51
2022/07/30 05:41:00;;;;;;;1999.90;999.90;;;;;;;19.20;96.52;99510.53;5053120;28;20051;-54
2022/07/30 05:44:03;;;;;;;1999.90;999.90;;;;;;;18.77;97.45;99502.72;5059105;28;20041;-53
2022/07/30 05:46:48;;;;;;;1999.90;999.90;;;;;;;18.95;97.85;99495.34;5052943;28;20056;-53
2022/07/30 05:49:33;;;;;;;1999.90;999.90;;;;;;;19.05;96.84;99493.84;5059159;28;20084;-52
2022/07/30 05:52:27;;;;;;;1999.90;999.90;;;;;;;19.10;96.91;99491.72;5057343;28;20052;-53
2022/07/30 05:55:19;;;;;;;1999.90;999.90;;;;;;;18.72;100.00;99489.75;5061477;28;20053;-53
2022/07/30 05:58:28;;;;;;;1999.90;999.90;;;;;;;19.12;98.42;99503.09;5058592;28;20049;-53
2022/07/30 06:01:12;;;;;;;1999.90;999.90;;;;;;;19.15;97.49;99493.13;5061565;28;20496;-54
2022/07/30 06:03:57;;;;;;;1999.90;999.90;;;;;;;19.27;97.52;99499.44;5059827;28;20049;-54
2022/07/30 06:07:04;;;;;;;1999.90;999.90;;;;;;;19.57;95.54;99515.16;5061722;28;20450;-53
2022/07/30 06:09:50;;;;;;;1999.90;999.90;;;;;;;19.39;96.88;99498.63;5063526;28;20053;-53
2022/07/30 06:12:35;;;;;;;1999.90;999.90;;;;;;;19.55;94.73;99511.72;5060561;28;20051;-52
2022/07/30 06:15:20;;;;;;;1999.90;999.90;;;;;;;19.58;96.63;99510.69;5054786;28;20045;-53
2022/07/30 06:18:04;;;;;;;1999.90;999.90;;;;;;;19.74;94.89;99491.94;5055899;28;20072;-53
2022/07/30 06:21:01;;;;;;;1999.90;999.90;;;;;;;19.75;94.88;99491.81;5061965;28;20059;-54
2022/07/30 06:24:08;;;;;;;1999.90;999.90;;;;;;;20.02;95.71;99490.91;5051003;28;20571;-54
2022/07/30 06:27:16;;;;;;;1999.90;999.90;;;;;;;19.84;94.51;99488.53;5050119;28;20795;-53
2022/07/30 06:30:07;;;;;;;1999.90;999.90;;;;;;;19.96;96.59;99496.66;5052662;28;20094;-53
2022/07/30 06:32:52;;;;;;;1999.90;999.90;;;;;;;20.11;95.19;99481.44;5049953;28;20392;-53
2022/07/30 06:35:38;;;;;;;1999.90;999.90;;;;;;;20.43;92.04;99489.81;5057637;28;20119;-54
2022/07/30 06:38:23;;;;;;;1999.90;999.90;;;;;;;20.74;89.78;99477.88;5052883;28;20060;-54
2022/07/30 06:41:17;;;;;;;1999.90;999.90;;;;;;;20.57;91.54;99472.88;5051907;28;20053;-54
2022/07/30 06:44:14;;;;;;;1999.90;999.90;;;;;;;21.08;89.51;99472.72;5057157;28;20052;-52
2022/07/30 06:47:28;;;;;;;1999.90;999.90;;;;;;;21.05;90.93;99478.28;5053954;28;20047;-53
2022/07/30 06:50:14;;;;;;;1999.90;999.90;;;;;;;21.12;92.32;99469.72;5055952;28;20063;-53
2022/07/30 06:52:59;;;;;;;1999.90;999.90;;;;;;;21.14;90.36;99467.81;5051983;28;20075;-52
2022/07/30 06:55:56;;;;;;;1999.90;999.90;;;;;;;21.33;90.32;99490.41;5054968;28;20912;-53
2022/07/30 06:58:41;;;;;;;1999.90;999.90;;;;;;;21.71;90.62;99476.91;5058987;28;20479;-54
2022/07/30 07:01:45;;;;;;;1999.90;999.90;;;;;;;21.32;92.08;99476.25;5054335;28;20517;-53
2022/07/30 07:04:31;;;;;;;1999.90;999.90;;;;;;;21.51;91.55;99475.72;5059534;28;20065;-53
2022/07/30 07:07:16;;;;;;;1999.90;999.90;;;;;;;21.73;89.17;99472.28;5061206;28;20041;-53
2022/07/30 07:10:01;;;;;;;1999.90;999.90;;;;;;;21.58;89.44;99471.66;5051682;28;20053;-55
2022/07/30 07:13:05;;;;;;;1999.90;999.90;;;;;;;21.95;88.09;99463.50;5054652;28;20060;-54
2022/07/30 07:15:51;;;;;;;1999.90;999.90;;;;;;;21.60;90.97;99471.53;5055706;28;20041;-55
2022/07/30 07:18:39;;;;;;;1999.90;999.90;;;;;;;21.80;92.11;99476.16;5061685;28;20041;-55
2022/07/30 07:21:23;;;;;;;1999.90;999.90;;;;;;;21.40;92.42;99471.22;5063178;28;20052;-54
2022/07/30 07:24:11;;;;;;;1999.90;999.90;;;;;;;21.37;90.73;99465.28;5040819;28;20079;-55
2022/07/30 07:27:10;;;;;;;1999.90;999.90;;;;;;;21.72;90.26;99459.94;5054325;28;20055;-55
2022/07/30 07:29:55;;;;;;;1999.90;999.90;;;;;;;21.46;93.18;99461.91;5055948;28;20052;-55
2022/07/30 07:32:41;;;;;;;1999.90;999.90;;;;;;;21.40;91.77;99449.91;5059536;28;20076;-53
2022/07/30 07:35:27;;;;;;;1999.90;999.90;;;;;;;21.64;91.96;99454.31;5065187;28;20619;-55
2022/07/30 07:38:11;;;;;;;1999.90;999.90;;;;;;;21.93;93.02;99452.94;5064686;28;20414;-54
2022/07/30 07:40:56;;;;;;;1999.90;999.90;;;;;;;21.24;96.58;99442.19;5060197;28;20045;-55
2022/07/30 07:43:40;;;;;;;1999.90;999.90;;;;;;;21.68;92.64;99442.50;5061056;28;20052;-53
2022/07/30 07:46:28;;;;;;;1999.90;999.90;;;;;;;21.69;92.45;99438.84;5063898;28;20061;-55
2022/07/30 07:49:13;;;;;;;1999.90;999.90;;;;;;;21.68;93.87;99440.66;5066343;28;20051;-54
2022/07/30 07:52:05;;;;;;;1999.90;999.90;;;;;;;21.80;93.14;99432.69;5059606;28;20052;-54
2022/07/30 07:54:49;;;;;;;1999.90;999.90;;;;;;;21.68;94.22;99434.50;5062853;28;20040;-53
2022/07/30 07:57:42;;;;;;;1999.90;999.90;;;;;;;21.55;96.93;99437.25;5059481;28;20403;-54
2022/07/30 08:00:28;;;;;;;1999.90;999.90;;;;;;;21.68;93.81;99434.50;5047515;28;20084;-54
2022/07/30 08:03:13;;;;;;;1999.90;999.90;;;;;;;21.44;96.12;99430.06;5059066;28;20049;-54
2022/07/30 08:06:00;;;;;;;1999.90;999.90;;;;;;;21.31;97.84;99436.41;5069814;28;20048;-53
2022/07/30 08:09:05;;;;;;;1999.90;999.90;;;;;;;21.65;94.89;99429.41;5053199;28;20373;-52
2022/07/30 08:12:19;;;;;;;1999.90;999.90;;;;;;;22.17;94.98;99428.03;5052620;28;20105;-55
2022/07/30 08:15:23;;;;;;;1999.90;999.90;;;;;;;22.35;95.02;99433.72;5058080;28;20052;-53
2022/07/30 08:18:31;;;;;;;1999.90;999.90;;;;;;;22.17;92.92;99434.22;5057930;28;20131;-54
2022/07/30 08:21:29;;;;;;;1999.90;999.90;;;;;;;22.02;95.62;99402.53;5064342;28;20487;-53
2022/07/30 08:24:13;;;;;;;1999.90;999.90;;;;;;;22.03;94.08;99425.56;5051632;28;20053;-55
2022/07/30 08:26:58;;;;;;;1999.90;999.90;;;;;;;22.05;93.34;99424.47;5056193;28;20045;-54
2022/07/30 08:29:42;;;;;;;1999.90;999.90;;;;;;;22.30;94.81;99420.75;5057332;28;20041;-55
2022/07/30 08:32:27;;;;;;;1999.90;999.90;;;;;;;22.51;91.97;99422.66;5055162;28;20045;-57
2022/07/30 08:35:12;;;;;;;1999.90;999.90;;;;;;;22.43;92.88;99411.78;5058864;28;20036;-57
2022/07/30 08:37:57;;;;;;;1999.90;999.90;;;;;;;22.33;94.14;99409.00;5056248;28;20063;-56
2022/07/30 08:40:41;;;;;;;1999.90;999.90;;;;;;;22.57;92.36;99415.00;5054760;28;20045;-56
2022/07/30 08:43:27;;;;;;;1999.90;999.90;;;;;;;22.25;93.47;99409.59;5060215;28;20051;-57
2022/07/30 08:46:16;;;;;;;1999.90;999.90;;;;;;;22.46;94.35;99408.88;5055391;28;20060;-57
2022/07/30 08:49:13;;;;;;;1999.90;999.90;;;;;;;22.54;94.92;99409.91;5057947;28;20049;-56
2022/07/30 08:51:57;;;;;;;1999.90;999.90;;;;;;;22.39;94.39;99412.03;5053275;28;20056;-56
2022/07/30 08:55:12;;;;;;;1999.90;999.90;;;;;;;23.00;91.68;99408.84;5045667;28;20408;-57
2022/07/30 08:57:58;;;;;;;1999.90;999.90;;;;;;;23.04;92.52;99414.78;5053096;28;20048;-56
2022/07/30 09:00:43;;;;;;;1999.90;999.90;;;;;;;22.97;91.90;99411.78;5060653;28;20053;-55
2022/07/30 09:03:27;;;;;;;1999.90;999.90;;;;;;;23.12;90.84;99404.31;5059873;28;20405;-55
2022/07/30 09:06:15;;;;;;;1999.90;999.90;;;;;;;23.31;90.30;99411.66;5056949;28;20438;-55
2022/07/30 09:09:00;;;;;;;1999.90;999.90;;;;;;;23.35;88.91;99413.06;5057339;28;20364;-56
2022/07/30 09:11:44;;;;;;;1999.90;999.90;;;;;;;23.41;91.99;99401.88;5058694;28;20057;-57
2022/07/30 09:14:29;;;;;;;1999.90;999.90;;;;;;;23.13;93.18;99405.16;5056017;28;20514;-57
2022/07/30 09:17:14;;;;;;;1999.90;999.90;;;;;;;23.64;91.33;99405.25;5056881;28;20049;-58
2022/07/30 09:20:03;;;;;;;1999.90;999.90;;;;;;;23.21;91.54;99400.03;5059407;28;20052;-57
2022/07/30 09:22:53;;;;;;;1999.90;999.90;;;;;;;23.96;93.26;99393.66;5062925;28;20079;-58
2022/07/30 09:25:58;;;;;;;1999.90;999.90;;;;;;;23.74;88.58;99395.50;5068773;28;20054;-57
2022/07/30 09:29:20;;;;;;;1999.90;999.90;;;;;;;24.51;88.44;99390.63;5059624;28;20439;-58
2022/07/30 09:32:48;;;;;;;1999.90;999.90;;;;;;;23.94;87.11;99384.91;5066450;28;20929;-58
2022/07/30 09:35:55;;;;;;;1999.90;999.90;;;;;;;23.97;92.17;99384.63;5063362;28;20049;-57
2022/07/30 09:38:58;;;;;;;1999.90;999.90;;;;;;;24.48;86.05;99391.75;5061771;28;20053;-57
2022/07/30 09:42:24;;;;;;;1999.90;999.90;;;;;;;24.49;83.70;99380.06;5055149;28;20460;-57
2022/07/30 09:45:13;;;;;;;1999.90;999.90;;;;;;;24.29;86.05;99370.25;5054819;28;20101;-58
2022/07/30 09:48:19;;;;;;;1999.90;999.90;;;;;;;24.59;86.37;99380.91;5044028;28;20052;-53
2022/07/30 09:51:04;;;;;;;;;;;;;;;24.44;85.59;99383.16;5065969;28;20044;-56
2022/07/30 09:53:55;;;;;;;1999.90;999.90;;;;;;;23.90;88.38;99384.31;5061422;28;19924;-54
2022/07/30 09:56:42;;;;;;;1999.90;999.90;;;;;;;24.51;86.77;99382.59;5064248;28;20045;-53
2022/07/30 09:59:29;;;;;;;1999.90;999.90;;;;;;;24.42;88.85;99381.59;5055852;28;20061;-53
2022/07/30 10:02:14;;;;;;;1999.90;999.90;;;;;;;24.63;85.40;99378.81;5059539;28;20105;-52
2022/07/30 10:05:23;;;;;;;1999.90;999.90;;;;;;;24.79;87.96;99380.94;5052981;28;20049;-51
2022/07/30 10:08:08;;;;;;;1999.90;999.90;;;;;;;25.02;84.00;99378.84;5059877;28;20047;-51
2022/07/30 10:10:53;;;;;;;1999.90;999.90;;;;;;;25.40;84.09;99381.53;5060919;28;20040;-51
2022/07/30 10:13:38;;;;;;;1999.90;999.90;;;;;;;25.38;84.65;99371.94;5069053;28;20067;-52
2022/07/30 10:16:27;;;;;;;1999.90;999.90;;;;;;;25.02;83.52;99360.09;5068871;28;20044;-49
2022/07/30 10:19:13;;;;;;;1999.90;999.90;;;;;;;25.15;83.58;99369.59;5062830;28;20468;-50
2022/07/30 10:22:18;;;;;;;1999.90;999.90;;;;;;;24.70;88.13;99361.22;5056757;28;20110;-50
2022/07/30 10:25:29;;;;;;;1999.90;999.90;;;;;;;24.58;87.84;99373.88;5053534;28;20570;-50
2022/07/30 10:28:34;;;;;;;1999.90;999.90;;;;;;;24.99;86.20;99365.72;5038529;28;20057;-50
2022/07/30 10:31:19;;;;;;;1999.90;999.90;;;;;;;24.72;86.32;99365.44;5066360;28;20048;-53
2022/07/30 10:34:04;;;;;;;1999.90;999.90;;;;;;;24.66;89.51;99359.78;5066803;28;20048;-50
2022/07/30 10:36:56;;;;;;;1999.90;999.90;;;;;;;24.31;92.17;99357.56;5055770;28;20040;-51
2022/07/30 10:39:53;;;;;;;1999.90;999.90;;;;;;;24.60;87.93;99358.53;5056556;28;20106;-52
2022/07/30 10:42:56;;;;;;;1999.90;999.90;;;;;;;24.52;88.28;99353.00;5062677;28;20048;-50
2022/07/30 10:46:09;;;;;;;1999.90;999.90;;;;;;;24.52;88.29;99361.03;5056757;28;20459;-49
2022/07/30 10:48:54;;;;;;;1999.90;999.90;;;;;;;24.25;90.54;99364.34;5057359;28;20045;-50
2022/07/30 10:51:44;;;;;;;1999.90;999.90;;;;;;;24.11;90.32;99354.00;5055408;28;20057;-49
2022/07/30 10:54:52;;;;;;;1999.90;999.90;;;;;;;23.98;89.98;99349.75;5049818;28;20654;-49
2022/07/30 10:57:56;;;;;;;1999.90;999.90;;;;;;;23.83;91.52;99350.25;5059145;28;20043;-49
2022/07/30 11:00:50;;;;;;;1999.90;999.90;;;;;;;24.11;90.67;99354.00;5050973;28;20522;-50
2022/07/30 11:03:34;;;;;;;1999.90;999.90;;;;;;;23.45;91.39;99354.34;5046919;28;20044;-49
2022/07/30 11:06:18;;;;;;;1999.90;999.90;;;;;;;23.56;93.25;99355.16;5048849;28;20073;-50
2022/07/30 11:09:36;;;;;;;1999.90;999.90;;;;;;;23.33;93.80;99357.13;5050545;28;20045;-50
2022/07/30 11:12:42;;;;;;;1999.90;999.90;;;;;;;23.56;93.05;99351.59;5050756;28;20084;-50
2022/07/30 11:15:56;;;;;;;1999.90;999.90;;;;;;;23.13;95.83;99346.41;5051415;28;20057;-50
2022/07/30 11:19:17;;;;;;;1999.90;999.90;;;;;;;23.02;97.10;99342.81;5059541;28;20150;-51
2022/07/30 11:22:27;;;;;;;1999.90;999.90;;;;;;;22.87;99.43;99349.41;5049521;28;20411;-51
2022/07/30 11:25:21;;;;;;;1999.90;999.90;;;;;;;23.15;98.25;99347.97;5055107;28;20041;-50
2022/07/30 11:28:05;;;;;;;1999.90;999.90;;;;;;;23.16;98.95;99341.66;5058892;28;20043;-51
2022/07/30 11:30:52;;;;;;;1999.90;999.90;;;;;;;23.09;100.00;99344.00;5056663;28;20115;-53
2022/07/30 11:33:36;;;;;;;1999.90;999.90;;;;;;;22.87;100.00;99339.56;5049200;28;20482;-49
2022/07/30 11:36:21;;;;;;;1999.90;999.90;;;;;;;22.85;100.00;99333.53;5051961;28;20068;-50
2022/07/30 11:39:05;;;;;;;1999.90;999.90;;;;;;;22.90;100.00;99335.81;5049432;28;20049;-50
2022/07/30 11:42:25;;;;;;;1999.90;999.90;;;;;;;22.77;100.00;99333.31;5050546;28;20056;-50
2022/07/30 11:45:15;;;;;;;1999.90;999.90;;;;;;;;;;5049233;28;20055;-51
2022/07/30 11:48:00;;;;;;;1999.90;999.90;;;;;;;22.07;100.00;99325.72;5058733;28;20036;-51
2022/07/30 11:50:46;;;;;;;1999.90;999.90;;;;;;;22.19;100.00;99327.41;5056400;28;20300;-51
2022/07/30 11:53:31;;;;;;;1999.90;999.90;;;;;;;21.98;100.00;99319.28;5056808;28;20063;-51
2022/07/30 11:56:16;;;;;;;1999.90;999.90;;;;;;;21.80;100.00;99320.75;5054414;28;20329;-51
2022/07/30 11:59:07;;;;;;;1999.90;999.90;;;;;;;21.78;100.00;99328.03;5055910;28;20370;-52
2022/07/30 12:01:55;;;;;;;1999.90;999.90;;;;;;;21.75;100.00;99313.13;5053414;28;20687;-51
2022/07/30 12:04:43;;;;;;;1999.90;999.90;;;;;;;21.58;100.00;99322.44;5051382;28;20048;-51
2022/07/30 12:07:27;;;;;;;1999.90;999.90;;;;;;;21.62;100.00;99320.38;5057598;28;20063;-52
2022/07/30 12:10:12;;;;;;;1999.90;999.90;;;;;;;21.49;100.00;99333.81;5054915;28;20061;-51
2022/07/30 12:13:10;;;;;;;1999.90;999.90;;;;;;;21.15;100.00;99338.19;5056446;28;20048;-52
2022/07/30 12:15:55;;;;;;;1999.90;999.90;;;;;;;21.06;100.00;99339.75;5060238;28;20052;-52
2022/07/30 12:18:40;;;;;;;1999.90;999.90;;;;;;;20.68;100.00;99332.81;5061502;28;20374;-53
2022/07/30 12:21:25;;;;;;;1999.90;999.90;;;;;;;20.35;100.00;99336.13;5058683;28;20145;-53
2022/07/30 12:24:10;;;;;;;1999.90;999.90;;;;;;;20.09;100.00;99322.06;5056667;28;20044;-52
2022/07/30 12:27:07;;;;;;;1999.90;999.90;;;;;;;20.16;100.00;99330.44;5062206;28;20052;-53
2022/07/30 12:29:52;;;;;;;1999.90;999.90;;;;;;;20.00;100.00;99328.88;5061759;28;20048;-52
2022/07/30 12:32:36;;;;;;;1999.90;999.90;;;;;;;19.84;100.00;99323.78;5065493;28;20045;-53
2022/07/30 12:35:22;;;;;;;1999.90;999.90;;;;;;;19.68;100.00;99317.03;5058644;28;20048;-53
2022/07/30 12:38:06;;;;;;;1999.90;999.90;;;;;;;19.67;100.00;99326.81;5059904;28;20048;-52
2022/07/30 12:40:54;;;;;;;1999.90;999.90;;;;;;;19.22;100.00;99323.69;5060581;28;20056;-51